createdAt,value
2022-10-09T00:01:05.110Z,100864.50
2022-10-09T00:03:35.929Z,100860.94
2022-10-09T00:06:04.862Z,100869.53
2022-10-09T00:08:32.779Z,100870.41
2022-10-09T00:11:00.738Z,100876.41
2022-10-09T00:13:28.624Z,100857.63
2022-10-09T00:15:56.426Z,100864.44
2022-10-09T00:18:24.650Z,100864.19
2022-10-09T00:20:53.854Z,100889.75
2022-10-09T00:23:21.715Z,100760.53
2022-10-09T00:25:54.807Z,100877.78
2022-10-09T00:28:24.018Z,100841.16
2022-10-09T00:30:52.345Z,100909.47
2022-10-09T00:33:20.872Z,100775.00
2022-10-09T00:35:48.806Z,100920.88
2022-10-09T00:38:18.339Z,100915.66
2022-10-09T00:40:46.362Z,100916.53
2022-10-09T00:43:21.359Z,100912.22
2022-10-09T00:45:52.674Z,100913.09
2022-10-09T00:48:21.245Z,100914.06
2022-10-09T00:50:53.981Z,100926.22
2022-10-09T00:53:27.117Z,100905.53
2022-10-09T00:55:55.574Z,100934.59
2022-10-09T00:58:25.831Z,100888.13
2022-10-09T01:00:54.324Z,100938.09
2022-10-09T01:03:22.337Z,100875.59
2022-10-09T01:05:59.648Z,100930.97
2022-10-09T01:08:33.012Z,100895.69
2022-10-09T01:11:08.962Z,100946.34
2022-10-09T01:13:44.201Z,100957.66
2022-10-09T01:16:23.703Z,100961.94
2022-10-09T01:18:59.264Z,100943.22
2022-10-09T01:21:31.376Z,100962.75
2022-10-09T01:24:22.141Z,100961.88
2022-10-09T01:27:07.225Z,100967.91
2022-10-09T01:29:38.801Z,100941.91
2022-10-09T01:32:08.860Z,100922.44
2022-10-09T01:34:40.307Z,100924.91
2022-10-09T01:37:09.518Z,100970.31
2022-10-09T01:39:38.748Z,100959.47
2022-10-09T01:42:09.450Z,100943.28
2022-10-09T01:44:37.357Z,100971.75
2022-10-09T01:47:07.245Z,100935.88
2022-10-09T01:49:43.250Z,100975.31
2022-10-09T01:52:26.112Z,100972.63
2022-10-09T01:55:04.662Z,100984.72
2022-10-09T01:57:39.736Z,100971.22
2022-10-09T02:00:11.073Z,101001.03
2022-10-09T02:02:40.996Z,100999.31
2022-10-09T02:05:10.826Z,100991.16
2022-10-09T02:07:39.501Z,101000.56
2022-10-09T02:10:10.529Z,101018.41
2022-10-09T02:12:45.116Z,100986.06
2022-10-09T02:15:13.589Z,101023.41
2022-10-09T02:17:47.768Z,101026.84
2022-10-09T02:20:24.917Z,101034.50
2022-10-09T02:22:54.627Z,100972.81
2022-10-09T02:25:22.910Z,101022.47
2022-10-09T02:27:52.137Z,101042.88
2022-10-09T02:30:22.884Z,101050.47
2022-10-09T02:32:53.544Z,101054.66
2022-10-09T02:35:22.259Z,101057.13
2022-10-09T02:37:50.290Z,101013.97
2022-10-09T02:40:18.327Z,101073.34
2022-10-09T02:42:46.379Z,101012.56
2022-10-09T02:45:16.144Z,101079.31
2022-10-09T02:47:44.047Z,101079.16
2022-10-09T02:50:11.970Z,100950.31
2022-10-09T02:52:39.885Z,101087.56
2022-10-09T02:55:08.258Z,101028.44
2022-10-09T02:57:36.109Z,101090.25
2022-10-09T03:00:04.588Z,101091.28
2022-10-09T03:02:34.005Z,101079.47
2022-10-09T03:05:01.920Z,101098.81
2022-10-09T03:07:30.029Z,101098.72
2022-10-09T03:09:58.497Z,101103.78
2022-10-09T03:12:26.309Z,101082.22
2022-10-09T03:14:54.234Z,101108.84
2022-10-09T03:17:22.493Z,101103.56
2022-10-09T03:19:51.756Z,101106.91
2022-10-09T03:22:19.853Z,101111.97
2022-10-09T03:24:47.937Z,101094.84
2022-10-09T03:27:15.795Z,101129.97
2022-10-09T03:29:43.768Z,101129.91
2022-10-09T03:32:11.835Z,101130.66
2022-10-09T03:34:39.848Z,101132.34
2022-10-09T03:37:09.273Z,101131.38
2022-10-09T03:39:37.322Z,101106.44
2022-10-09T03:42:05.445Z,101140.84
2022-10-09T03:44:33.403Z,101123.78
2022-10-09T03:47:01.482Z,101138.97
2022-10-09T03:49:29.416Z,101108.19
2022-10-09T03:51:57.396Z,101152.72
2022-10-09T03:54:26.804Z,101149.06
2022-10-09T03:56:54.645Z,101092.44
2022-10-09T03:59:22.657Z,101162.66
2022-10-09T04:01:50.608Z,101158.13
2022-10-09T04:04:18.647Z,101122.09
2022-10-09T04:06:46.673Z,101163.81
2022-10-09T04:09:14.624Z,101167.09
2022-10-09T04:11:43.850Z,101169.59
2022-10-09T04:14:11.933Z,101167.63
2022-10-09T04:16:40.111Z,101164.88
2022-10-09T04:19:08.003Z,101181.28
2022-10-09T04:21:36.069Z,101173.31
2022-10-09T04:24:04.034Z,101181.94
2022-10-09T04:26:31.937Z,101192.28
2022-10-09T04:29:01.231Z,101193.91
2022-10-09T04:31:29.230Z,101203.25
2022-10-09T04:33:57.349Z,101187.06
2022-10-09T04:36:25.781Z,101215.38
2022-10-09T04:38:53.788Z,101217.06
2022-10-09T04:41:21.682Z,101219.59
2022-10-09T04:43:49.682Z,101217.63
2022-10-09T04:46:18.971Z,101218.38
2022-10-09T04:48:47.663Z,101222.59
2022-10-09T04:51:16.608Z,101225.13
2022-10-09T04:53:45.444Z,101219.31
2022-10-09T04:56:15.343Z,101242.34
2022-10-09T04:58:44.534Z,101210.69
2022-10-09T05:01:15.005Z,101255.44
2022-10-09T05:03:44.837Z,101254.44
2022-10-09T05:06:14.406Z,101257.94
2022-10-09T05:08:43.197Z,101259.75
2022-10-09T05:11:13.318Z,101239.06
2022-10-09T05:13:45.072Z,101248.75
2022-10-09T05:16:15.368Z,101271.75
2022-10-09T05:18:45.877Z,101135.53
2022-10-09T05:21:14.030Z,101276.31
2022-10-09T05:23:41.897Z,101275.44
2022-10-09T05:26:13.468Z,101280.63
2022-10-09T05:28:41.418Z,101212.47
2022-10-09T05:31:10.467Z,101280.63
2022-10-09T05:33:38.516Z,101279.75
2022-10-09T05:36:08.206Z,101276.16
2022-10-09T05:38:36.093Z,101282.25
2022-10-09T05:41:06.167Z,101285.56
2022-10-09T05:43:35.995Z,101156.41
2022-10-09T05:46:09.335Z,101279.69
2022-10-09T05:48:37.685Z,101251.88
2022-10-09T05:51:13.439Z,101303.44
2022-10-09T05:53:42.917Z,101298.25
2022-10-09T05:56:13.276Z,101295.66
2022-10-09T05:58:41.213Z,101290.44
2022-10-09T06:01:10.085Z,101255.13
2022-10-09T06:03:38.807Z,101309.81
2022-10-09T06:06:08.361Z,101309.00
2022-10-09T06:08:38.973Z,101302.81
2022-10-09T06:11:11.601Z,101321.13
2022-10-09T06:13:39.601Z,101322.16
2022-10-09T06:16:07.559Z,101254.78
2022-10-09T06:18:35.726Z,101332.78
2022-10-09T06:21:03.940Z,101312.59
2022-10-09T06:23:32.676Z,101340.66
2022-10-09T06:26:04.644Z,101345.22
2022-10-09T06:28:34.106Z,101346.19
2022-10-09T06:31:03.874Z,101361.91
2022-10-09T06:33:33.365Z,101286.88
2022-10-09T06:36:09.675Z,101354.25
2022-10-09T06:38:38.664Z,101221.81
2022-10-09T06:41:09.718Z,101356.66
2022-10-09T06:43:37.726Z,101304.50
2022-10-09T06:46:08.448Z,101370.81
2022-10-09T06:48:37.772Z,101363.59
2022-10-09T06:51:07.621Z,101357.50
2022-10-09T06:53:36.153Z,101367.03
2022-10-09T06:56:04.366Z,101364.38
2022-10-09T06:58:33.619Z,101378.25
2022-10-09T07:01:07.087Z,101377.44
2022-10-09T07:03:35.655Z,101390.47
2022-10-09T07:06:08.105Z,101401.50
2022-10-09T07:08:35.968Z,101401.28
2022-10-09T07:11:09.906Z,101400.84
2022-10-09T07:13:39.537Z,101402.16
2022-10-09T07:16:07.766Z,101410.16
2022-10-09T07:18:36.729Z,101408.59
2022-10-09T07:21:06.256Z,101387.91
2022-10-09T07:23:35.612Z,101406.47
2022-10-09T07:26:10.953Z,101414.97
2022-10-09T07:28:41.491Z,101379.34
2022-10-09T07:31:10.199Z,101396.03
2022-10-09T07:33:38.609Z,101411.91
2022-10-09T07:36:08.124Z,101414.38
2022-10-09T07:38:36.350Z,101418.53
2022-10-09T07:41:07.354Z,101396.19
2022-10-09T07:43:36.106Z,101412.22
2022-10-09T07:46:07.047Z,101421.38
2022-10-09T07:48:35.657Z,101412.81
2022-10-09T07:51:09.922Z,101429.28
2022-10-09T07:53:38.653Z,101427.72
2022-10-09T07:56:07.164Z,101435.56
2022-10-09T07:58:35.228Z,101443.38
2022-10-09T08:01:08.854Z,101449.97
2022-10-09T08:03:37.886Z,101440.19
2022-10-09T08:06:06.724Z,101411.09
2022-10-09T08:08:35.030Z,101462.44
2022-10-09T08:11:10.129Z,101460.44
2022-10-09T08:13:38.227Z,101462.88
2022-10-09T08:16:08.217Z,101445.97
2022-10-09T08:18:37.307Z,101462.59
2022-10-09T08:21:07.506Z,101457.59
2022-10-09T08:23:35.564Z,101445.34
2022-10-09T08:26:03.714Z,101466.00
2022-10-09T08:28:31.897Z,101466.81
2022-10-09T08:30:59.955Z,101462.53
2022-10-09T08:33:29.163Z,101454.25
2022-10-09T08:36:08.065Z,101471.81
2022-10-09T08:38:51.919Z,101477.31
2022-10-09T08:41:29.223Z,101458.34
2022-10-09T08:44:02.857Z,101473.75
2022-10-09T08:46:36.501Z,101464.25
2022-10-09T08:49:06.490Z,101470.78
2022-10-09T08:51:39.601Z,101465.56
2022-10-09T08:54:17.280Z,101447.25
2022-10-09T08:56:45.932Z,101470.91
2022-10-09T08:59:13.846Z,101479.06
2022-10-09T09:01:49.507Z,101454.31
2022-10-09T09:04:33.235Z,101438.22
2022-10-09T09:07:12.417Z,101481.94
2022-10-09T09:09:48.776Z,101473.75
2022-10-09T09:12:23.425Z,101489.91
2022-10-09T09:15:10.188Z,101490.84
2022-10-09T09:17:47.554Z,101492.28
2022-10-09T09:20:25.831Z,101485.88
2022-10-09T09:22:53.942Z,101485.38
2022-10-09T09:25:25.322Z,101484.75
2022-10-09T09:27:55.818Z,101443.75
2022-10-09T09:30:28.276Z,101491.09
2022-10-09T09:33:06.179Z,101470.91
2022-10-09T09:35:43.109Z,101491.50
2022-10-09T09:38:11.135Z,101489.91
2022-10-09T09:40:42.235Z,101486.09
2022-10-09T09:43:18.860Z,101483.09
2022-10-09T09:45:47.730Z,101497.41
2022-10-09T09:48:20.118Z,101496.88
2022-10-09T09:51:10.081Z,101501.84
2022-10-09T09:53:44.900Z,101501.22
2022-10-09T09:56:12.980Z,101506.28
2022-10-09T09:58:46.757Z,101512.44
2022-10-09T10:01:24.093Z,101507.06
2022-10-09T10:03:54.175Z,101512.50
2022-10-09T10:06:25.688Z,101524.28
2022-10-09T10:09:04.164Z,101490.69
2022-10-09T10:11:34.982Z,101475.69
2022-10-09T10:14:08.053Z,101517.09
2022-10-09T10:16:39.289Z,101501.88
2022-10-09T10:19:07.325Z,101518.53
2022-10-09T10:21:48.328Z,101520.47
2022-10-09T10:24:22.236Z,101511.22
2022-10-09T10:26:55.801Z,101402.34
2022-10-09T10:29:30.288Z,101521.09
2022-10-09T10:32:05.120Z,101518.81
2022-10-09T10:34:38.817Z,101504.75
2022-10-09T10:37:25.421Z,101526.81
2022-10-09T10:40:00.501Z,101511.00
2022-10-09T10:42:38.379Z,101466.13
2022-10-09T10:45:15.607Z,101501.97
2022-10-09T10:47:50.341Z,101509.63
2022-10-09T10:50:20.487Z,101488.94
2022-10-09T10:53:03.189Z,101500.91
2022-10-09T10:55:44.262Z,101516.09
2022-10-09T10:58:30.680Z,101509.50
2022-10-09T11:01:20.337Z,101513.31
2022-10-09T11:04:13.012Z,101453.56
2022-10-09T11:06:52.399Z,101512.81
2022-10-09T11:09:30.799Z,101510.59
2022-10-09T11:12:10.047Z,101501.06
2022-10-09T11:14:50.548Z,101504.66
2022-10-09T11:17:26.666Z,101463.28
2022-10-09T11:20:12.613Z,101502.78
2022-10-09T11:22:53.733Z,101514.66
2022-10-09T11:25:31.054Z,101511.63
2022-10-09T11:28:06.080Z,101482.47
2022-10-09T11:30:41.294Z,101511.75
2022-10-09T11:33:22.561Z,101509.72
2022-10-09T11:35:57.242Z,101472.06
2022-10-09T11:38:29.765Z,101502.41
2022-10-09T11:41:05.218Z,101516.78
2022-10-09T11:43:48.518Z,101524.25
2022-10-09T11:46:26.234Z,101503.94
2022-10-09T11:49:02.930Z,101506.00
2022-10-09T11:51:37.342Z,101514.59
2022-10-09T11:54:07.365Z,101510.81
2022-10-09T11:56:36.655Z,101507.19
2022-10-09T11:59:07.078Z,101501.19
2022-10-09T12:01:37.852Z,101478.28
2022-10-09T12:04:09.878Z,101443.69
2022-10-09T12:06:47.608Z,101493.72
2022-10-09T12:09:24.163Z,101490.16
2022-10-09T12:12:00.413Z,101498.66
2022-10-09T12:14:30.354Z,101502.97
2022-10-09T12:16:59.108Z,101508.97
2022-10-09T12:19:30.425Z,101503.41
2022-10-09T12:22:03.608Z,101497.44
2022-10-09T12:24:37.975Z,101510.47
2022-10-09T12:27:09.116Z,101498.72
2022-10-09T12:29:49.305Z,101504.78
2022-10-09T12:32:24.660Z,101476.69
2022-10-09T12:34:53.775Z,101408.84
2022-10-09T12:37:23.576Z,101476.19
2022-10-09T12:39:51.660Z,101494.38
2022-10-09T12:42:24.262Z,101491.25
2022-10-09T12:44:55.487Z,101463.50
2022-10-09T12:47:26.871Z,101490.69
2022-10-09T12:49:59.922Z,101477.44
2022-10-09T12:52:28.101Z,101485.16
2022-10-09T12:54:56.016Z,101495.28
2022-10-09T12:57:27.834Z,101497.13
2022-10-09T12:59:56.786Z,101496.19
2022-10-09T13:02:24.868Z,101504.13
2022-10-09T13:04:58.791Z,101495.59
2022-10-09T13:07:29.865Z,101495.94
2022-10-09T13:10:07.932Z,101496.72
2022-10-09T13:12:37.346Z,101500.56
2022-10-09T13:15:09.158Z,101439.06
2022-10-09T13:17:39.414Z,101456.34
2022-10-09T13:20:27.389Z,101503.91
2022-10-09T13:22:56.420Z,101512.59
2022-10-09T13:25:24.909Z,101510.75
2022-10-09T13:27:54.500Z,101434.53
2022-10-09T13:30:22.479Z,101509.47
2022-10-09T13:32:50.886Z,101503.44
2022-10-09T13:35:19.328Z,101505.38
2022-10-09T13:37:47.702Z,101499.09
2022-10-09T13:40:19.819Z,101513.09
2022-10-09T13:42:53.846Z,101504.34
2022-10-09T13:45:23.362Z,101502.00
2022-10-09T13:47:51.875Z,101509.16
2022-10-09T13:50:20.498Z,101487.59
2022-10-09T13:52:48.690Z,101462.66
2022-10-09T13:55:17.185Z,101504.53
2022-10-09T13:57:45.152Z,101496.44
2022-10-09T14:00:14.243Z,101501.00
2022-10-09T14:02:43.532Z,101506.59
2022-10-09T14:05:11.756Z,101517.25
2022-10-09T14:07:39.781Z,101508.94
2022-10-09T14:10:08.281Z,101511.63
2022-10-09T14:12:36.327Z,101510.50
2022-10-09T14:15:04.367Z,101514.44
2022-10-09T14:17:32.221Z,101527.31
2022-10-09T14:20:02.000Z,101521.09
2022-10-09T14:22:30.110Z,101492.56
2022-10-09T14:24:58.049Z,101518.31
2022-10-09T14:27:26.254Z,101500.03
2022-10-09T14:29:56.738Z,101520.00
2022-10-09T14:32:25.729Z,101498.53
2022-10-09T14:34:53.979Z,101524.81
2022-10-09T14:37:40.374Z,101533.47
2022-10-09T14:40:10.099Z,101525.34
2022-10-09T14:42:38.704Z,101532.22
2022-10-09T14:45:07.874Z,101529.53
2022-10-09T14:47:35.844Z,101526.81
2022-10-09T14:50:04.140Z,101523.97
2022-10-09T14:52:33.325Z,101532.72
2022-10-09T14:55:01.256Z,101539.53
2022-10-09T14:57:32.970Z,101536.50
2022-10-09T15:00:03.232Z,101519.31
2022-10-09T15:02:31.264Z,101531.53
2022-10-09T15:04:59.128Z,101528.84
2022-10-09T15:07:28.295Z,101520.03
2022-10-09T15:09:58.114Z,101526.06
2022-10-09T15:12:26.007Z,101525.00
2022-10-09T15:14:54.017Z,101512.44
2022-10-09T15:17:22.088Z,101523.81
2022-10-09T15:19:49.904Z,101532.56
2022-10-09T15:22:17.774Z,101522.50
2022-10-09T15:24:45.929Z,101528.66
2022-10-09T15:27:15.221Z,101532.09
2022-10-09T15:29:43.278Z,101512.38
2022-10-09T15:32:11.294Z,101527.34
2022-10-09T15:34:41.243Z,101536.09
2022-10-09T15:37:09.349Z,101536.00
2022-10-09T15:39:37.403Z,101535.81
2022-10-09T15:42:05.617Z,101480.22
2022-10-09T15:44:34.956Z,101538.94
2022-10-09T15:47:03.048Z,101539.63
2022-10-09T15:49:30.939Z,101543.81
2022-10-09T15:51:58.914Z,101548.09
2022-10-09T15:54:27.900Z,101521.91
2022-10-09T15:56:55.747Z,101553.81
2022-10-09T15:59:24.126Z,101555.41
2022-10-09T16:01:53.510Z,101559.56
2022-10-09T16:04:21.438Z,101563.03
2022-10-09T16:06:49.457Z,101532.56
2022-10-09T16:09:17.381Z,101500.06
2022-10-09T16:11:45.269Z,101574.84
2022-10-09T16:14:13.276Z,101577.38
2022-10-09T16:16:41.443Z,101572.91
2022-10-09T16:19:10.668Z,101570.13
2022-10-09T16:21:38.663Z,101575.28
2022-10-09T16:24:06.944Z,101575.16
2022-10-09T16:26:34.742Z,101566.28
2022-10-09T16:29:02.639Z,101580.25
2022-10-09T16:31:34.788Z,101584.53
2022-10-09T16:34:04.185Z,101584.41
2022-10-09T16:36:34.176Z,101584.25
2022-10-09T16:39:02.092Z,101578.88
2022-10-09T16:41:30.173Z,101599.84
2022-10-09T16:44:00.274Z,101600.56
2022-10-09T16:46:31.692Z,101552.19
2022-10-09T16:49:00.935Z,101601.19
2022-10-09T16:51:30.422Z,101601.13
2022-10-09T16:54:02.372Z,101593.03
2022-10-09T16:56:33.389Z,101599.78
2022-10-09T16:59:03.560Z,101598.00
2022-10-09T17:01:32.268Z,101604.88
2022-10-09T17:04:01.319Z,101594.19
2022-10-09T17:06:29.499Z,101592.41
2022-10-09T17:09:00.022Z,101592.31
2022-10-09T17:11:29.805Z,101584.09
2022-10-09T17:13:58.171Z,101591.97
2022-10-09T17:16:28.206Z,101584.09
2022-10-09T17:18:56.666Z,101582.25
2022-10-09T17:21:27.854Z,101581.22
2022-10-09T17:24:02.418Z,101565.97
2022-10-09T17:26:31.168Z,101587.25
2022-10-09T17:28:59.970Z,101586.38
2022-10-09T17:31:29.516Z,101583.63
2022-10-09T17:33:59.810Z,101586.25
2022-10-09T17:36:29.466Z,101586.25
2022-10-09T17:38:57.800Z,101589.66
2022-10-09T17:41:28.439Z,101586.13
2022-10-09T17:43:57.447Z,101584.25
2022-10-09T17:46:27.844Z,101559.09
2022-10-09T17:48:57.146Z,101589.13
2022-10-09T17:51:26.992Z,101585.44
2022-10-09T17:56:33.044Z,101591.47
2022-10-09T17:59:01.865Z,101565.53
2022-10-09T18:01:30.199Z,101590.34
2022-10-09T18:03:58.802Z,101591.13
2022-10-09T18:06:27.197Z,101566.66
2022-10-09T18:08:57.258Z,101590.81
2022-10-09T18:11:27.032Z,101589.75
2022-10-09T18:13:56.468Z,101591.34
2022-10-09T18:16:35.385Z,101529.38
2022-10-09T18:19:05.916Z,101586.31
2022-10-09T18:21:34.350Z,101606.72
2022-10-09T18:24:02.393Z,101605.69
2022-10-09T18:26:30.564Z,101605.50
2022-10-09T18:29:01.509Z,101605.38
2022-10-09T18:31:30.169Z,101607.88
2022-10-09T18:33:59.013Z,101605.13
2022-10-09T18:36:33.518Z,101594.50
2022-10-09T18:39:03.284Z,101608.31
2022-10-09T18:41:31.410Z,101607.22
2022-10-09T18:44:02.014Z,101593.72
2022-10-09T18:46:35.303Z,101602.41
2022-10-09T18:49:03.471Z,101607.72
2022-10-09T18:51:32.322Z,101604.19
2022-10-09T18:54:04.571Z,101594.28
2022-10-09T18:56:35.828Z,101608.53
2022-10-09T18:59:10.520Z,101605.84
2022-10-09T19:01:38.644Z,101610.19
2022-10-09T19:04:06.628Z,101556.56
2022-10-09T19:06:34.596Z,101607.66
2022-10-09T19:09:02.581Z,101606.03
2022-10-09T19:11:31.524Z,101602.41
2022-10-09T19:14:00.932Z,101592.63
2022-10-09T19:16:31.878Z,101603.16
2022-10-09T19:19:00.186Z,101599.66
2022-10-09T19:21:28.133Z,101609.19
2022-10-09T19:23:56.312Z,101605.72
2022-10-09T19:26:24.543Z,101611.03
2022-10-09T19:28:52.494Z,101611.09
2022-10-09T19:31:20.457Z,101599.72
2022-10-09T19:33:49.658Z,101601.44
2022-10-09T19:36:17.760Z,101571.78
2022-10-09T19:38:46.727Z,101611.09
2022-10-09T19:41:16.563Z,101609.31
2022-10-09T19:43:44.809Z,101605.72
2022-10-09T19:46:17.065Z,101611.81
2022-10-09T19:48:45.976Z,101610.00
2022-10-09T19:51:18.672Z,101612.63
2022-10-09T19:53:47.031Z,101613.47
2022-10-09T19:56:16.953Z,101610.84
2022-10-09T19:58:46.343Z,101610.97
2022-10-09T20:01:15.288Z,101609.31
2022-10-09T20:03:43.651Z,101609.44
2022-10-09T20:06:12.509Z,101620.97
2022-10-09T20:08:43.286Z,101466.31
2022-10-09T20:11:12.011Z,101611.50
2022-10-09T20:13:41.518Z,101613.94
2022-10-09T20:16:11.362Z,101620.41
2022-10-09T20:18:42.255Z,101614.38
2022-10-09T20:21:10.858Z,101624.94
2022-10-09T20:23:38.829Z,101619.81
2022-10-09T20:26:11.912Z,101619.00
2022-10-09T20:28:40.108Z,101626.09
2022-10-09T20:31:09.698Z,101625.22
2022-10-09T20:33:39.812Z,101620.84
2022-10-09T20:36:09.217Z,101615.53
2022-10-09T20:38:37.426Z,101598.47
2022-10-09T20:41:07.514Z,101618.22
2022-10-09T20:43:36.999Z,101602.25
2022-10-09T20:46:08.523Z,101626.94
2022-10-09T20:48:36.990Z,101612.09
2022-10-09T20:51:05.275Z,101620.84
2022-10-09T20:53:33.248Z,101619.09
2022-10-09T20:56:01.850Z,101618.94
2022-10-09T20:58:30.553Z,101625.13
2022-10-09T21:01:00.205Z,101634.59
2022-10-09T21:03:28.053Z,101614.13
2022-10-09T21:05:56.033Z,101620.09
2022-10-09T21:08:23.973Z,101619.44
2022-10-09T21:10:51.844Z,101564.69
2022-10-09T21:13:19.757Z,101620.91
2022-10-09T21:15:50.045Z,101625.09
2022-10-09T21:18:20.873Z,101614.41
2022-10-09T21:20:49.894Z,101625.66
2022-10-09T21:23:20.052Z,101620.22
2022-10-09T21:25:50.020Z,101607.44
2022-10-09T21:28:18.514Z,101619.00
2022-10-09T21:30:46.472Z,101605.44
2022-10-09T21:33:15.134Z,101612.59
2022-10-09T21:35:46.365Z,101613.38
2022-10-09T21:38:16.024Z,101583.50
2022-10-09T21:40:44.317Z,101601.28
2022-10-09T21:43:12.312Z,101620.06
2022-10-09T21:45:41.095Z,101622.63
2022-10-09T21:48:09.939Z,101627.53
2022-10-09T21:50:37.955Z,101624.97
2022-10-09T21:53:07.342Z,101625.94
2022-10-09T21:55:35.783Z,101618.63
2022-10-09T21:58:03.610Z,101625.03
2022-10-09T22:00:31.560Z,101609.75
2022-10-09T22:03:00.107Z,101624.00
2022-10-09T22:05:27.989Z,101594.53
2022-10-09T22:07:55.894Z,101622.16
2022-10-09T22:10:25.489Z,101612.66
2022-10-09T22:12:53.647Z,101611.75
2022-10-09T22:15:21.805Z,101603.91
2022-10-09T22:17:49.732Z,101603.91
2022-10-09T22:20:17.920Z,101603.13
2022-10-09T22:22:46.021Z,101600.56
2022-10-09T22:25:13.937Z,101605.75
2022-10-09T22:27:43.184Z,101594.25
2022-10-09T22:30:12.374Z,101581.16
2022-10-09T22:32:40.264Z,101602.31
2022-10-09T22:35:08.633Z,101601.41
2022-10-09T22:37:36.586Z,101601.41
2022-10-09T22:40:05.078Z,101596.16
2022-10-09T22:42:32.918Z,101595.22
2022-10-09T22:45:02.552Z,101595.22
2022-10-09T22:47:30.515Z,101597.88
2022-10-09T22:49:58.542Z,101603.13
2022-10-09T22:52:27.270Z,101537.03
2022-10-09T22:54:55.833Z,101581.22
2022-10-09T22:57:23.675Z,101572.19
2022-10-09T22:59:51.688Z,101597.97
2022-10-09T23:02:20.943Z,101584.66
2022-10-09T23:04:48.807Z,101599.88
2022-10-09T23:07:16.789Z,101595.47
2022-10-09T23:09:44.677Z,101593.75
2022-10-09T23:12:12.493Z,101587.63
2022-10-09T23:14:40.435Z,101596.16
2022-10-09T23:17:08.378Z,101575.66
2022-10-09T23:19:37.687Z,101597.75
2022-10-09T23:22:05.866Z,101601.22
2022-10-09T23:24:33.774Z,101604.66
2022-10-09T23:27:01.585Z,101602.94
2022-10-09T23:29:29.624Z,101607.06
2022-10-09T23:31:57.664Z,101604.38
2022-10-09T23:34:25.518Z,101604.25
2022-10-09T23:36:54.842Z,101614.53
2022-10-09T23:39:22.739Z,101594.34
2022-10-09T23:41:50.557Z,101611.16
2022-10-09T23:44:21.971Z,101610.19
2022-10-09T23:46:50.250Z,101587.94
2022-10-09T23:49:18.104Z,101601.22
2022-10-09T23:51:46.112Z,101562.47
2022-10-09T23:54:15.520Z,101600.34
2022-10-09T23:56:44.069Z,101606.41
2022-10-09T23:59:12.932Z,101603.72
